Time;durP1;ratioP1;P1;durP2;ratioP2;P2;SDS_P1;SDS_P2;PMS_P1;PMS_P2;Temp;Humidity;BMP_temperature;BMP_pressure;BME280_temperature;BME280_humidity;BME280_pressure;Samples;Min_cycle;Max_cycle;Signal;HPM_P1;HPM_P2
2023/09/27 00:00:10;;;;;;;3.70;3.40;;;13.00;99.90;;;;;;4994503;28;20200;-79
2023/09/27 00:02:39;;;;;;;3.70;3.40;;;13.10;99.90;;;;;;4995112;28;20538;-79
2023/09/27 00:05:06;;;;;;;4.20;3.77;;;13.20;99.90;;;;;;4995511;28;20187;-78
2023/09/27 00:07:36;;;;;;;4.80;4.27;;;13.20;99.90;;;;;;4995328;28;20184;-80
2023/09/27 00:10:02;;;;;;;4.67;4.27;;;13.20;99.90;;;;;;4995252;28;20199;-79
2023/09/27 00:12:28;;;;;;;5.13;4.37;;;13.10;99.90;;;;;;4995162;28;20238;-79
2023/09/27 00:14:55;;;;;;;6.73;4.50;;;13.10;99.90;;;;;;4995062;28;20179;-79
2023/09/27 00:17:21;;;;;;;5.27;4.77;;;13.00;99.90;;;;;;5010160;28;20290;-79
2023/09/27 00:19:47;;;;;;;5.77;4.27;;;12.90;99.90;;;;;;5010258;28;20645;-79
2023/09/27 00:22:13;;;;;;;5.73;4.47;;;12.90;99.90;;;;;;4985898;28;20182;-79
2023/09/27 00:24:39;;;;;;;4.70;4.20;;;13.00;99.90;;;;;;4987482;28;20683;-79
2023/09/27 00:27:05;;;;;;;7.80;4.90;;;13.00;99.90;;;;;;4996643;28;20230;-79
2023/09/27 00:29:30;;;;;;;5.53;4.60;;;13.00;99.90;;;;;;4998906;28;20184;-79
2023/09/27 00:31:56;;;;;;;6.00;4.63;;;12.80;99.90;;;;;;4998704;28;20199;-79
2023/09/27 00:34:22;;;;;;;7.10;4.90;;;12.90;99.90;;;;;;4999203;28;20202;-79
2023/09/27 00:36:49;;;;;;;7.57;4.50;;;12.90;99.90;;;;;;4998634;28;20203;-79
2023/09/27 00:39:14;;;;;;;6.07;4.73;;;12.80;99.90;;;;;;4998612;28;20191;-79
2023/09/27 00:41:40;;;;;;;5.43;4.70;;;12.70;99.90;;;;;;5035215;23;20227;-79
2023/09/27 00:44:05;;;;;;;6.60;4.70;;;12.60;99.90;;;;;;5016520;28;20207;-77
2023/09/27 00:46:32;;;;;;;12.10;5.10;;;12.60;99.90;;;;;;5010884;28;20223;-79
2023/09/27 00:48:58;;;;;;;13.07;5.60;;;12.60;99.90;;;;;;5003433;28;20211;-79
2023/09/27 00:51:25;;;;;;;5.90;5.10;;;12.60;99.90;;;;;;5007664;28;20680;-78
2023/09/27 00:53:52;;;;;;;5.03;4.53;;;12.40;99.90;;;;;;5007049;28;20189;-79
2023/09/27 00:56:18;;;;;;;6.00;4.73;;;12.40;99.90;;;;;;5006700;28;20188;-78
2023/09/27 00:58:43;;;;;;;7.50;4.53;;;12.40;99.90;;;;;;5007018;28;20203;-79
2023/09/27 01:01:10;;;;;;;5.37;4.27;;;12.50;99.90;;;;;;5005691;28;20203;-79
2023/09/27 01:03:36;;;;;;;5.10;4.60;;;12.50;99.90;;;;;;5003463;28;20223;-79
2023/09/27 01:06:02;;;;;;;4.57;3.90;;;12.50;99.90;;;;;;5003685;28;20215;-79
2023/09/27 01:08:28;;;;;;;5.03;4.27;;;12.60;99.90;;;;;;4982789;28;20183;-77
2023/09/27 01:10:54;;;;;;;6.10;4.40;;;12.60;99.90;;;;;;5006072;28;20207;-79
2023/09/27 01:13:19;;;;;;;4.87;4.23;;;12.70;99.90;;;;;;5004799;28;20194;-79
2023/09/27 01:15:45;;;;;;;5.90;4.50;;;12.80;99.90;;;;;;5003081;28;20561;-79
2023/09/27 01:18:10;;;;;;;5.37;4.53;;;12.80;99.90;;;;;;5005281;28;20208;-78
2023/09/27 01:20:36;;;;;;;4.83;4.43;;;12.80;99.90;;;;;;5014547;28;20206;-79
2023/09/27 01:23:03;;;;;;;6.43;4.57;;;12.70;99.90;;;;;;4998560;28;20176;-79
2023/09/27 01:25:31;;;;;;;4.60;4.07;;;12.80;99.90;;;;;;4996135;28;20203;-79
2023/09/27 01:28:01;;;;;;;4.40;4.00;;;12.90;99.90;;;;;;5004180;28;20183;-79
2023/09/27 01:30:33;;;;;;;5.47;4.50;;;12.90;99.90;;;;;;5005912;28;20207;-79
2023/09/27 01:33:06;;;;;;;5.17;4.00;;;12.80;99.90;;;;;;5007590;28;20274;-76
2023/09/27 01:35:36;;;;;;;4.63;4.20;;;12.90;99.90;;;;;;4996647;28;20187;-78
2023/09/27 01:38:03;;;;;;;4.87;4.23;;;12.90;99.90;;;;;;5002494;28;20331;-79
2023/09/27 01:40:30;;;;;;;4.87;4.10;;;12.90;99.90;;;;;;4995414;28;20254;-79
2023/09/27 01:43:03;;;;;;;4.73;4.30;;;13.00;99.90;;;;;;5002843;28;20190;-79
2023/09/27 01:45:30;;;;;;;5.20;4.30;;;13.00;99.90;;;;;;4996067;28;20195;-79
2023/09/27 01:47:56;;;;;;;4.77;3.97;;;13.00;99.90;;;;;;5003861;28;20195;-79
2023/09/27 01:50:24;;;;;;;4.70;3.50;;;13.00;99.90;;;;;;5006536;28;20622;-79
2023/09/27 01:52:54;;;;;;;4.00;3.60;;;12.90;99.90;;;;;;5005594;28;20187;-79
2023/09/27 01:55:21;;;;;;;5.30;4.10;;;12.90;99.90;;;;;;5003551;28;20209;-78
2023/09/27 01:57:46;;;;;;;5.20;4.10;;;12.90;99.90;;;;;;5002464;28;20208;-79
2023/09/27 02:00:17;;;;;;;4.70;4.30;;;12.80;99.90;;;;;;5003718;28;20683;-78
2023/09/27 02:02:53;;;;;;;5.07;4.57;;;12.80;99.90;;;;;;5005508;28;20274;-79
2023/09/27 02:05:19;;;;;;;5.43;4.43;;;12.60;99.90;;;;;;5015089;28;20185;-78
2023/09/27 02:07:44;;;;;;;3.60;3.30;;;12.50;99.90;;;;;;5006360;28;20187;-78
2023/09/27 02:10:11;;;;;;;3.27;3.03;;;12.40;99.90;;;;;;5004693;28;20274;-78
2023/09/27 02:12:38;;;;;;;3.73;3.43;;;12.20;99.90;;;;;;5002017;28;20215;-80
2023/09/27 02:15:04;;;;;;;3.60;3.30;;;12.20;99.90;;;;;;5001930;28;20238;-76
2023/09/27 02:17:30;;;;;;;3.97;3.53;;;12.20;99.90;;;;;;5009853;28;20212;-79
2023/09/27 02:19:56;;;;;;;4.10;3.70;;;12.30;99.90;;;;;;5003512;28;20190;-79
2023/09/27 02:22:22;;;;;;;5.13;3.60;;;12.40;99.90;;;;;;5003030;28;20219;-79
2023/09/27 02:24:48;;;;;;;5.60;3.80;;;12.40;99.90;;;;;;5001725;28;20274;-79
2023/09/27 02:27:14;;;;;;;4.40;3.90;;;12.40;99.90;;;;;;5003195;28;20622;-78
2023/09/27 02:29:41;;;;;;;4.43;4.03;;;12.40;99.90;;;;;;5002051;28;20652;-79
2023/09/27 02:32:07;;;;;;;4.10;3.70;;;12.30;99.90;;;;;;5002160;28;20302;-79
2023/09/27 02:34:33;;;;;;;5.57;4.03;;;12.40;99.90;;;;;;5010810;28;20207;-79
2023/09/27 02:36:59;;;;;;;4.60;4.20;;;12.30;99.90;;;;;;5003115;28;20207;-79
2023/09/27 02:39:25;;;;;;;5.60;4.37;;;12.30;99.90;;;;;;5001559;28;20234;-79
2023/09/27 02:41:50;;;;;;;4.50;4.10;;;12.20;99.90;;;;;;5002766;28;20589;-79
2023/09/27 02:44:16;;;;;;;3.97;3.67;;;12.10;99.90;;;;;;5004682;28;20671;-79
2023/09/27 02:46:43;;;;;;;4.60;4.20;;;12.10;99.90;;;;;;5006580;28;20178;-79
2023/09/27 02:49:09;;;;;;;4.90;4.50;;;12.10;99.90;;;;;;5004434;28;20175;-79
2023/09/27 02:51:35;;;;;;;4.20;3.90;;;12.10;99.90;;;;;;5001203;28;20345;-79
2023/09/27 02:54:01;;;;;;;4.90;4.40;;;12.10;99.90;;;;;;5001459;28;20262;-79
2023/09/27 02:56:27;;;;;;;4.50;4.10;;;12.00;99.90;;;;;;5004554;28;20250;-79
2023/09/27 02:58:53;;;;;;;6.30;4.37;;;12.00;99.90;;;;;;5004640;28;20175;-79
2023/09/27 03:01:18;;;;;;;6.00;4.37;;;12.10;99.90;;;;;;5003698;28;20203;-80
2023/09/27 03:03:44;;;;;;;4.43;4.03;;;11.90;99.90;;;;;;4998703;28;20190;-79
2023/09/27 03:06:14;;;;;;;4.77;3.90;;;11.80;99.90;;;;;;5005187;28;20222;-79
2023/09/27 03:08:43;;;;;;;4.13;3.70;;;11.80;99.90;;;;;;5002615;28;20196;-79
2023/09/27 03:11:09;;;;;;;4.57;4.10;;;11.80;99.90;;;;;;5010310;28;20203;-79
2023/09/27 03:13:36;;;;;;;4.17;3.77;;;11.80;99.90;;;;;;5000854;28;20647;-79
2023/09/27 03:16:04;;;;;;;4.20;3.57;;;11.80;99.90;;;;;;5002248;28;20648;-79
2023/09/27 03:18:30;;;;;;;3.80;3.50;;;11.80;99.90;;;;;;5004576;28;20202;-79
2023/09/27 03:20:56;;;;;;;3.27;3.07;;;11.90;99.90;;;;;;5005433;28;20203;-78
2023/09/27 03:23:21;;;;;;;3.53;3.23;;;11.90;99.90;;;;;;5001997;28;20186;-79
2023/09/27 03:25:48;;;;;;;3.40;3.10;;;11.90;99.90;;;;;;5001130;28;20237;-79
2023/09/27 03:28:14;;;;;;;3.03;2.83;;;11.80;99.90;;;;;;5004032;28;20183;-79
2023/09/27 03:30:40;;;;;;;4.37;3.37;;;11.80;99.90;;;;;;5004577;28;20743;-79
2023/09/27 03:33:06;;;;;;;3.20;2.97;;;11.70;99.90;;;;;;5004292;28;20183;-79
2023/09/27 03:35:31;;;;;;;3.40;3.10;;;11.60;99.90;;;;;;5004705;28;20198;-79
2023/09/27 03:37:57;;;;;;;3.20;2.90;;;11.50;99.90;;;;;;5004550;28;20203;-77
2023/09/27 03:40:23;;;;;;;6.90;3.10;;;11.50;99.90;;;;;;5000567;28;20215;-79
2023/09/27 03:42:49;;;;;;;3.13;2.83;;;11.50;99.90;;;;;;5006914;28;20262;-78
2023/09/27 03:45:16;;;;;;;3.40;3.10;;;11.60;99.90;;;;;;5003637;28;20701;-78
2023/09/27 03:47:45;;;;;;;3.73;3.10;;;11.50;99.90;;;;;;5000777;28;20734;-79
2023/09/27 03:50:12;;;;;;;3.20;3.00;;;11.40;99.90;;;;;;5000830;28;20186;-80
2023/09/27 03:52:40;;;;;;;3.73;3.33;;;11.50;99.90;;;;;;5016655;28;20187;-79
2023/09/27 03:55:07;;;;;;;3.63;3.27;;;11.50;99.90;;;;;;5000969;28;20598;-77
2023/09/27 03:57:33;;;;;;;4.23;3.30;;;11.50;99.90;;;;;;5003800;28;20260;-77
2023/09/27 03:59:58;;;;;;;3.67;3.37;;;11.40;99.90;;;;;;5005508;28;20183;-80
2023/09/27 04:02:25;;;;;;;3.57;3.27;;;11.30;99.90;;;;;;5003077;28;20207;-80
2023/09/27 04:04:51;;;;;;;4.27;3.20;;;11.30;99.90;;;;;;5004783;28;20258;-79
2023/09/27 04:07:18;;;;;;;3.77;3.17;;;11.30;99.90;;;;;;5007741;28;20608;-81
2023/09/27 04:09:45;;;;;;;3.57;3.10;;;11.20;99.90;;;;;;5009473;28;20190;-79
2023/09/27 04:12:11;;;;;;;3.63;3.23;;;11.10;99.90;;;;;;5008200;28;20206;-80
2023/09/27 04:14:37;;;;;;;6.00;3.70;;;11.20;99.90;;;;;;5004310;28;20194;-80
2023/09/27 04:17:03;;;;;;;3.77;3.47;;;11.10;99.90;;;;;;5005185;28;20211;-82
2023/09/27 04:19:30;;;;;;;4.83;3.30;;;11.10;99.90;;;;;;4997428;28;20187;-82
2023/09/27 04:21:55;;;;;;;4.97;3.43;;;11.20;99.90;;;;;;5003957;28;20207;-78
2023/09/27 04:24:21;;;;;;;3.73;3.40;;;11.10;99.90;;;;;;5007482;28;20187;-82
2023/09/27 04:26:47;;;;;;;3.90;3.50;;;11.00;99.90;;;;;;5007757;28;20181;-83
2023/09/27 04:29:12;;;;;;;4.30;3.50;;;11.10;99.90;;;;;;5005751;28;20209;-81
2023/09/27 04:31:38;;;;;;;5.13;3.60;;;11.20;99.90;;;;;;5008230;28;20269;-82
2023/09/27 04:34:04;;;;;;;5.77;3.47;;;11.30;99.90;;;;;;4999941;28;20179;-82
2023/09/27 04:36:30;;;;;;;3.80;3.50;;;11.40;99.90;;;;;;4998969;28;20655;-82
2023/09/27 04:38:56;;;;;;;3.97;3.60;;;11.30;99.90;;;;;;4999349;28;20253;-83
2023/09/27 04:41:21;;;;;;;3.87;3.47;;;11.30;99.90;;;;;;4999044;28;20219;-87
2023/09/27 04:43:47;;;;;;;4.00;3.60;;;11.20;99.90;;;;;;4995092;28;20188;-83
2023/09/27 04:46:17;;;;;;;4.50;3.43;;;11.60;99.90;;;;;;4996236;28;20279;-82
2023/09/27 04:48:43;;;;;;;5.38;3.70;;;12.20;99.90;;;;;;4994924;28;20903;-82
2023/09/27 04:51:09;;;;;;;4.27;3.00;;;12.90;99.90;;;;;;4996500;28;20192;-84
2023/09/27 04:53:36;;;;;;;3.17;2.80;;;13.40;99.90;;;;;;5017079;28;20194;-82
2023/09/27 04:56:06;;;;;;;3.10;2.80;;;13.80;99.90;;;;;;5019374;28;20180;-82
2023/09/27 04:58:32;;;;;;;3.93;2.90;;;14.00;99.90;;;;;;5019069;28;20577;-83
2023/09/27 05:00:57;;;;;;;3.03;2.73;;;14.20;99.90;;;;;;4998793;28;20199;-84
2023/09/27 05:03:23;;;;;;;3.83;2.70;;;14.20;64.90;;;;;;4995931;28;20202;-84
2023/09/27 05:05:48;;;;;;;3.03;2.77;;;14.30;16.50;;;;;;4995961;28;20175;-84
2023/09/27 05:08:14;;;;;;;3.30;3.00;;;14.40;1.00;;;;;;4994642;28;20234;-84
2023/09/27 05:10:39;;;;;;;3.53;2.43;;;14.40;99.90;;;;;;5010613;28;20707;-83
2023/09/27 05:13:05;;;;;;;3.37;2.70;;;14.00;1.00;;;;;;5009429;28;20229;-83
2023/09/27 05:15:32;;;;;;;2.70;2.50;;;13.40;99.90;;;;;;4993876;28;20179;-83
2023/09/27 05:17:58;;;;;;;4.20;2.97;;;12.80;13.40;;;;;;5008767;28;20211;-83
2023/09/27 05:20:24;;;;;;;3.10;2.90;;;12.30;1.00;;;;;;4993903;28;20203;-83
2023/09/27 05:22:49;;;;;;;3.70;3.17;;;12.10;1.00;;;;;;4993898;28;20182;-83
2023/09/27 05:25:15;;;;;;;3.40;3.10;;;11.90;99.90;;;;;;5009120;28;20179;-83
2023/09/27 05:27:40;;;;;;;3.40;3.10;;;11.80;99.90;;;;;;4994028;28;20783;-83
2023/09/27 05:30:11;;;;;;;3.27;2.97;;;11.70;99.90;;;;;;5010243;28;20179;-83
2023/09/27 05:32:37;;;;;;;3.77;3.47;;;11.70;99.90;;;;;;4994987;28;20259;-84
2023/09/27 05:35:04;;;;;;;3.47;3.17;;;11.60;99.90;;;;;;5010264;28;20182;-83
2023/09/27 05:37:31;;;;;;;3.50;3.20;;;11.60;99.90;;;;;;4994925;28;20794;-82
2023/09/27 05:39:56;;;;;;;3.17;2.93;;;11.70;99.90;;;;;;4994972;28;20522;-82
2023/09/27 05:42:22;;;;;;;3.40;3.10;;;11.60;99.90;;;;;;4994438;28;20750;-82
2023/09/27 05:44:48;;;;;;;3.63;3.33;;;11.50;99.90;;;;;;4994677;28;20172;-83
2023/09/27 05:47:14;;;;;;;4.67;3.40;;;11.30;99.90;;;;;;4994971;28;20206;-83
2023/09/27 05:49:41;;;;;;;3.77;3.43;;;11.30;99.90;;;;;;4993553;28;20180;-83
2023/09/27 05:52:11;;;;;;;4.17;3.77;;;11.20;99.90;;;;;;4994449;28;20274;-83
2023/09/27 05:54:39;;;;;;;4.50;4.10;;;11.10;99.90;;;;;;5009761;28;20259;-84
2023/09/27 05:57:06;;;;;;;4.40;3.73;;;11.10;99.90;;;;;;5009417;28;20203;-82
2023/09/27 05:59:32;;;;;;;6.27;4.20;;;11.20;99.90;;;;;;4993383;28;20179;-83
2023/09/27 06:01:58;;;;;;;4.17;3.77;;;11.10;99.90;;;;;;5009354;28;20192;-83
2023/09/27 06:04:24;;;;;;;4.53;4.10;;;11.20;99.90;;;;;;4994545;28;20178;-82
2023/09/27 06:06:50;;;;;;;10.17;4.00;;;11.30;99.90;;;;;;4993185;28;20266;-83
2023/09/27 06:09:16;;;;;;;10.60;4.13;;;11.30;99.90;;;;;;4994266;28;20561;-83
2023/09/27 06:11:42;;;;;;;5.87;3.63;;;11.20;99.90;;;;;;4994306;28;20274;-83
2023/09/27 06:14:10;;;;;;;4.47;3.80;;;11.20;99.90;;;;;;5009346;28;20219;-83
2023/09/27 06:16:39;;;;;;;4.07;3.77;;;11.20;99.90;;;;;;4994189;28;20172;-83
2023/09/27 06:19:05;;;;;;;5.67;3.77;;;11.20;99.90;;;;;;5009182;28;20644;-83
2023/09/27 06:21:32;;;;;;;4.10;3.70;;;11.20;99.90;;;;;;4993890;28;20183;-83
2023/09/27 06:23:58;;;;;;;3.87;3.57;;;11.20;99.90;;;;;;4993849;28;20731;-82
2023/09/27 06:26:24;;;;;;;3.13;2.87;;;11.20;99.90;;;;;;4993728;28;20660;-83
2023/09/27 06:28:51;;;;;;;3.47;3.17;;;11.30;99.90;;;;;;5009236;28;20272;-83
2023/09/27 06:31:16;;;;;;;3.37;3.07;;;11.30;99.90;;;;;;4993762;28;20218;-83
2023/09/27 06:33:45;;;;;;;3.37;3.07;;;11.20;99.90;;;;;;4992810;28;20227;-83
2023/09/27 06:36:11;;;;;;;3.47;3.17;;;11.20;99.90;;;;;;4992485;28;20575;-83
2023/09/27 06:38:37;;;;;;;2.97;2.77;;;11.20;99.90;;;;;;4992287;28;20206;-83
2023/09/27 06:41:03;;;;;;;3.30;3.00;;;11.30;99.90;;;;;;5009164;28;20281;-83
2023/09/27 06:43:31;;;;;;;3.00;2.80;;;11.10;99.90;;;;;;5008972;28;20187;-83
2023/09/27 06:45:58;;;;;;;4.40;3.20;;;11.20;99.90;;;;;;4993677;28;20548;-83
2023/09/27 06:48:24;;;;;;;3.63;3.33;;;11.20;99.90;;;;;;5008731;28;20186;-83
2023/09/27 06:50:50;;;;;;;3.33;3.03;;;11.40;99.90;;;;;;4993397;28;20283;-83
2023/09/27 06:53:16;;;;;;;3.70;3.33;;;11.50;99.90;;;;;;4992242;28;20287;-83
2023/09/27 06:55:44;;;;;;;3.80;3.13;;;11.50;99.90;;;;;;5008813;28;20187;-83
2023/09/27 06:58:11;;;;;;;3.40;3.10;;;11.60;99.90;;;;;;4993261;28;20230;-83
2023/09/27 07:00:40;;;;;;;3.57;3.27;;;11.60;99.90;;;;;;4993675;28;20255;-82
2023/09/27 07:03:06;;;;;;;3.57;3.27;;;11.70;99.90;;;;;;4996394;28;20179;-83
2023/09/27 07:05:33;;;;;;;4.20;3.80;;;11.80;99.90;;;;;;4995134;28;20306;-83
2023/09/27 07:07:59;;;;;;;3.73;3.43;;;11.90;99.90;;;;;;5010551;28;20179;-83
2023/09/27 07:10:24;;;;;;;4.53;4.13;;;12.00;99.90;;;;;;4993706;28;20196;-83
2023/09/27 07:12:50;;;;;;;6.23;4.00;;;12.10;99.90;;;;;;4993451;28;20262;-83
2023/09/27 07:15:16;;;;;;;4.63;3.70;;;12.10;99.90;;;;;;4993267;28;20184;-83
2023/09/27 07:17:44;;;;;;;4.50;4.10;;;12.20;99.90;;;;;;4993088;28;20199;-83
2023/09/27 07:20:24;;;;;;;5.33;4.37;;;12.20;99.90;;;;;;4992824;28;20168;-83
2023/09/27 07:22:51;;;;;;;4.60;4.20;;;12.30;99.90;;;;;;5007998;28;20617;-83
2023/09/27 07:25:18;;;;;;;5.50;5.00;;;12.40;99.90;;;;;;5007984;28;20203;-83
2023/09/27 07:27:46;;;;;;;5.27;4.80;;;12.50;99.90;;;;;;4993208;28;20254;-83
2023/09/27 07:30:12;;;;;;;5.60;4.97;;;12.70;99.90;;;;;;4991670;28;20238;-83
2023/09/27 07:32:39;;;;;;;6.00;5.43;;;12.80;99.90;;;;;;4991483;28;20179;-83
2023/09/27 07:35:10;;;;;;;5.50;5.00;;;13.00;99.90;;;;;;5008084;28;20176;-83
2023/09/27 07:37:38;;;;;;;7.47;5.10;;;13.20;99.90;;;;;;4992347;28;20204;-83
2023/09/27 07:40:09;;;;;;;6.10;5.50;;;13.40;99.90;;;;;;5007646;28;20177;-83
2023/09/27 07:42:35;;;;;;;5.20;4.70;;;13.50;99.90;;;;;;5007887;28;20188;-83
2023/09/27 07:45:02;;;;;;;5.83;5.20;;;13.70;99.90;;;;;;4991564;28;20266;-83
2023/09/27 07:47:27;;;;;;;8.07;5.10;;;13.80;99.90;;;;;;5007873;28;20569;-82
2023/09/27 07:49:54;;;;;;;5.07;4.57;;;14.00;99.90;;;;;;4992985;28;20645;-83
2023/09/27 07:52:20;;;;;;;5.60;5.10;;;14.10;99.90;;;;;;4992567;28;20195;-83
2023/09/27 07:54:46;;;;;;;6.87;5.13;;;14.20;99.90;;;;;;4992763;28;20255;-83
2023/09/27 07:57:12;;;;;;;6.10;5.50;;;14.30;99.90;;;;;;4992728;28;20197;-83
2023/09/27 07:59:37;;;;;;;5.73;5.10;;;14.40;99.90;;;;;;5007842;28;20172;-82
2023/09/27 08:02:03;;;;;;;5.77;5.27;;;14.70;99.90;;;;;;5007842;28;20223;-83
2023/09/27 08:04:28;;;;;;;5.73;4.70;;;14.90;99.90;;;;;;4992651;28;20250;-83
2023/09/27 08:06:54;;;;;;;4.73;4.33;;;15.10;99.90;;;;;;4992646;28;20172;-83
2023/09/27 08:09:22;;;;;;;5.53;4.50;;;15.20;99.90;;;;;;5007716;28;20259;-83
2023/09/27 08:11:48;;;;;;;5.47;4.80;;;15.40;99.90;;;;;;4992363;28;20202;-83
2023/09/27 08:14:16;;;;;;;6.13;4.67;;;15.50;99.90;;;;;;5007696;28;20199;-82
2023/09/27 08:16:42;;;;;;;7.67;5.90;;;15.80;99.90;;;;;;4992852;28;20184;-83
2023/09/27 08:19:08;;;;;;;5.50;4.93;;;15.90;99.90;;;;;;5007864;28;20171;-83
2023/09/27 08:21:34;;;;;;;5.77;5.20;;;16.10;99.90;;;;;;4991145;28;20710;-83
2023/09/27 08:23:59;;;;;;;5.20;4.80;;;16.20;99.90;;;;;;5007622;28;20172;-83
2023/09/27 08:26:26;;;;;;;5.90;5.13;;;16.40;99.90;;;;;;4991264;28;20207;-84
2023/09/27 08:28:51;;;;;;;5.17;4.67;;;16.50;99.90;;;;;;4992419;28;20187;-83
2023/09/27 08:31:17;;;;;;;5.47;4.80;;;16.70;99.90;;;;;;4992518;28;20188;-85
2023/09/27 08:33:43;;;;;;;6.00;4.83;;;17.00;99.90;;;;;;4992566;28;20183;-83
2023/09/27 08:36:11;;;;;;;5.53;5.00;;;17.20;99.90;;;;;;4992546;28;20172;-83
2023/09/27 08:38:36;;;;;;;5.10;4.60;;;17.40;99.90;;;;;;4991269;28;20234;-83
2023/09/27 08:41:03;;;;;;;6.07;4.40;;;17.70;99.90;;;;;;4992108;28;20212;-83
2023/09/27 08:43:34;;;;;;;4.97;4.50;;;17.90;99.90;;;;;;5007432;28;20175;-83
2023/09/27 08:45:59;;;;;;;5.83;5.23;;;18.10;99.90;;;;;;4992787;28;20175;-82
2023/09/27 08:48:28;;;;;;;5.57;5.07;;;18.20;99.90;;;;;;4994123;28;20176;-83
2023/09/27 08:50:55;;;;;;;6.20;5.57;;;18.20;99.90;;;;;;4995697;28;20340;-83
2023/09/27 08:53:20;;;;;;;6.30;5.70;;;18.20;99.90;;;;;;4995744;28;20179;-83
2023/09/27 08:55:49;;;;;;;6.13;5.60;;;18.30;99.90;;;;;;5010745;28;20182;-84
2023/09/27 08:58:15;;;;;;;6.60;6.00;;;18.40;99.90;;;;;;5010795;28;20689;-83
2023/09/27 09:00:42;;;;;;;6.80;6.20;;;18.50;99.90;;;;;;5010492;28;20230;-83
2023/09/27 09:03:07;;;;;;;7.27;6.27;;;18.70;99.90;;;;;;5011636;28;20168;-83
2023/09/27 09:05:33;;;;;;;6.13;5.63;;;18.80;99.90;;;;;;4994850;28;20558;-83
2023/09/27 09:08:01;;;;;;;8.07;6.20;;;18.90;99.90;;;;;;5010610;28;20234;-83
2023/09/27 09:10:27;;;;;;;6.27;5.60;;;19.00;99.90;;;;;;4995283;28;20204;-83
2023/09/27 09:12:52;;;;;;;6.43;5.87;;;19.10;99.90;;;;;;4995361;28;20801;-83
2023/09/27 09:15:27;;;;;;;8.07;5.87;;;19.20;99.90;;;;;;4995564;28;20226;-81
2023/09/27 09:17:57;;;;;;;6.70;6.10;;;19.50;99.90;;;;;;4995158;28;20226;-83
2023/09/27 09:20:28;;;;;;;6.57;5.75;;;19.60;99.90;;;;;;5010481;28;20215;-83
2023/09/27 09:22:57;;;;;;;6.82;5.72;;;19.80;99.90;;;;;;4995242;28;20175;-83
2023/09/27 09:25:23;;;;;;;6.18;5.65;;;20.00;1.00;;;;;;4995454;28;20175;-83
2023/09/27 09:28:08;;;;;;;6.40;5.28;;;20.30;1.00;;;;;;5010652;28;20179;-83
2023/09/27 09:30:38;;;;;;;5.63;5.13;;;20.40;1.00;;;;;;4994945;28;20207;-80
2023/09/27 09:33:17;;;;;;;5.78;5.28;;;20.60;1.00;;;;;;4995185;28;20179;-83
2023/09/27 09:35:42;;;;;;;6.30;5.50;;;20.70;1.00;;;;;;5009994;28;20557;-83
2023/09/27 09:38:08;;;;;;;5.70;5.10;;;20.90;1.00;;;;;;4995093;28;20203;-83
2023/09/27 09:40:50;;;;;;;5.43;4.93;;;21.00;1.00;;;;;;4994979;28;20211;-82
2023/09/27 09:43:28;;;;;;;5.80;5.20;;;21.00;1.00;;;;;;4993820;28;20172;-83
2023/09/27 09:45:54;;;;;;;6.60;5.32;;;20.90;1.00;;;;;;4994896;28;20636;-83
2023/09/27 09:48:19;;;;;;;5.63;5.13;;;20.90;1.00;;;;;;5009892;28;20184;-83
2023/09/27 09:50:47;;;;;;;6.18;5.57;;;20.80;1.00;;;;;;4994455;28;20206;-83
2023/09/27 09:53:14;;;;;;;6.47;5.78;;;20.70;1.00;;;;;;4995029;28;20191;-83
2023/09/27 09:55:41;;;;;;;6.90;6.20;;;20.70;1.00;;;;;;4993493;28;20171;-83
2023/09/27 09:58:33;;;;;;;6.03;5.50;;;20.70;1.00;;;;;;4994710;28;20281;-83
2023/09/27 10:01:02;;;;;;;7.00;6.30;;;20.80;1.00;;;;;;5009057;28;20249;-83
2023/09/27 10:03:35;;;;;;;6.57;5.82;;;21.00;99.90;;;;;;4994858;28;20230;-84
2023/09/27 10:06:04;;;;;;;6.32;5.57;;;21.20;1.00;;;;;;5009566;28;20171;-83
2023/09/27 10:08:34;;;;;;;6.47;5.65;;;21.50;99.90;;;;;;5009465;28;20183;-83
2023/09/27 10:11:06;;;;;;;5.15;4.65;;;21.80;1.70;;;;;;4992774;28;20199;-84
2023/09/27 10:13:35;;;;;;;5.25;4.50;;;22.10;1.00;;;;;;4994451;28;20175;-83
2023/09/27 10:16:03;;;;;;;4.20;3.90;;;22.30;99.90;;;;;;4994229;28;20175;-83
2023/09/27 10:18:33;;;;;;;5.93;4.60;;;22.50;1.00;;;;;;4992953;28;20236;-81
2023/09/27 10:21:12;;;;;;;5.07;4.00;;;22.60;13.00;;;;;;5009265;28;20286;-83
2023/09/27 10:23:52;;;;;;;5.53;4.35;;;22.70;99.90;;;;;;5009204;28;20309;-83
2023/09/27 10:26:26;;;;;;;4.72;4.07;;;22.90;1.00;;;;;;4994490;28;20176;-83
2023/09/27 10:29:04;;;;;;;5.38;4.00;;;23.20;1.00;;;;;;4994409;28;20166;-83
2023/09/27 10:31:56;;;;;;;4.70;4.20;;;23.50;99.90;;;;;;4993716;28;20207;-83
2023/09/27 10:34:25;;;;;;;5.00;4.50;;;23.60;1.00;;;;;;4975010;28;20195;-85
2023/09/27 10:36:51;;;;;;;4.85;4.07;;;23.50;99.90;;;;;;5009159;28;20199;-84
2023/09/27 10:39:17;;;;;;;4.85;3.78;;;23.60;99.90;;;;;;4994100;28;20186;-85
2023/09/27 10:41:46;;;;;;;3.15;2.30;;;23.80;99.90;;;;;;4993796;28;20211;-85
2023/09/27 10:44:44;;;;;;;2.75;2.17;;;24.00;99.90;;;;;;5009231;28;20175;-83
2023/09/27 10:47:12;;;;;;;2.55;2.35;;;24.00;1.00;;;;;;4981765;28;20681;-83
2023/09/27 10:49:38;;;;;;;3.38;3.08;;;24.10;1.00;;;;;;5009006;28;20310;-83
2023/09/27 10:52:14;;;;;;;3.42;2.03;;;24.20;99.90;;;;;;4993331;28;20195;-83
2023/09/27 10:54:40;;;;;;;2.08;1.80;;;24.30;99.90;;;;;;5008616;28;20262;-84
2023/09/27 10:57:06;;;;;;;2.20;2.00;;;24.40;1.00;;;;;;4992351;28;20263;-83
2023/09/27 10:59:31;;;;;;;3.53;2.20;;;24.50;99.90;;;;;;5008788;28;20262;-83
2023/09/27 11:02:02;;;;;;;2.58;1.88;;;24.50;99.90;;;;;;4993546;28;20245;-83
2023/09/27 11:04:29;;;;;;;4.15;2.00;;;24.50;1.00;;;;;;4993527;28;20644;-83
2023/09/27 11:06:56;;;;;;;2.13;1.92;;;24.80;1.00;;;;;;4993422;28;20664;-83
2023/09/27 11:09:23;;;;;;;2.17;1.60;;;24.70;1.00;;;;;;4993546;28;20164;-83
2023/09/27 11:11:57;;;;;;;2.00;1.90;;;24.90;1.00;;;;;;5008597;28;20199;-83
2023/09/27 11:14:33;;;;;;;2.25;1.80;;;24.90;1.00;;;;;;4993563;28;20230;-83
2023/09/27 11:17:22;;;;;;;1.60;1.40;;;25.20;1.00;;;;;;5008569;28;20178;-83
2023/09/27 11:19:49;;;;;;;1.60;1.50;;;25.30;1.00;;;;;;4993269;28;20171;-82
2023/09/27 11:22:25;;;;;;;2.20;1.77;;;25.50;1.00;;;;;;5008540;28;20199;-83
2023/09/27 11:24:51;;;;;;;1.77;1.65;;;25.40;1.00;;;;;;5008272;28;20175;-80
2023/09/27 11:27:19;;;;;;;2.20;1.88;;;25.60;1.00;;;;;;5008202;28;20198;-80
2023/09/27 11:29:50;;;;;;;2.95;1.75;;;26.00;1.00;;;;;;4992893;28;20183;-80
2023/09/27 11:32:16;;;;;;;3.03;1.88;;;26.00;1.00;;;;;;4991436;28;20196;-81
2023/09/27 11:34:42;;;;;;;2.90;2.17;;;25.60;1.00;;;;;;4991886;28;20177;-80
2023/09/27 11:37:17;;;;;;;2.70;2.30;;;25.50;1.00;;;;;;5007960;28;20200;-80
2023/09/27 11:39:50;;;;;;;2.40;2.20;;;25.80;1.00;;;;;;4993005;28;20218;-82
2023/09/27 11:42:25;;;;;;;2.17;1.98;;;25.80;1.00;;;;;;4992643;28;20234;-80
2023/09/27 11:45:20;;;;;;;2.30;2.03;;;25.80;1.00;;;;;;4992953;28;20210;-80
2023/09/27 11:47:47;;;;;;;2.47;2.20;;;25.60;1.00;;;;;;4988253;28;20719;-80
2023/09/27 11:50:14;;;;;;;2.58;2.28;;;25.70;1.00;;;;;;5008270;28;20270;-80
2023/09/27 11:52:42;;;;;;;2.83;2.58;;;25.60;1.00;;;;;;4992759;28;20226;-80
2023/09/27 11:55:09;;;;;;;3.67;2.90;;;25.40;99.90;;;;;;5007859;28;20186;-80
2023/09/27 11:57:35;;;;;;;3.15;2.65;;;25.10;99.90;;;;;;4991338;28;20288;-80
2023/09/27 12:00:01;;;;;;;3.00;2.63;;;25.10;1.00;;;;;;4992759;28;20199;-81
2023/09/27 12:02:27;;;;;;;3.63;2.55;;;25.00;1.00;;;;;;4992616;28;20171;-80
2023/09/27 12:04:53;;;;;;;2.95;2.60;;;24.80;1.00;;;;;;4991502;28;20175;-82
2023/09/27 12:07:18;;;;;;;3.92;2.53;;;24.80;99.90;;;;;;4992623;28;20168;-80
2023/09/27 12:09:44;;;;;;;3.38;2.45;;;25.10;1.00;;;;;;5007728;28;20184;-80
2023/09/27 12:12:09;;;;;;;2.60;2.40;;;25.50;99.90;;;;;;4991204;28;20628;-80
2023/09/27 12:14:35;;;;;;;4.45;2.70;;;25.90;99.90;;;;;;5007904;28;20179;-81
2023/09/27 12:17:00;;;;;;;2.63;2.42;;;25.90;1.00;;;;;;4991375;28;20172;-80
2023/09/27 12:19:26;;;;;;;2.53;2.35;;;26.10;99.90;;;;;;4992744;28;20175;-80
2023/09/27 12:21:52;;;;;;;2.60;2.40;;;26.60;99.90;;;;;;5007447;28;20199;-80
2023/09/27 12:24:17;;;;;;;3.28;2.70;;;26.90;66.70;;;;;;4995759;28;20207;-78
2023/09/27 12:26:43;;;;;;;3.05;2.75;;;27.20;1.00;;;;;;4996698;28;20663;-80
2023/09/27 12:29:08;;;;;;;4.13;2.85;;;26.60;1.00;;;;;;5011396;28;20175;-80
2023/09/27 12:31:34;;;;;;;3.08;2.38;;;26.80;99.90;;;;;;4994952;28;20207;-80
2023/09/27 12:33:59;;;;;;;3.10;2.15;;;27.10;1.00;;;;;;4996261;28;20176;-80
2023/09/27 12:36:25;;;;;;;3.90;2.50;;;27.20;32.90;;;;;;4995966;28;20176;-80
2023/09/27 12:38:50;;;;;;;2.63;2.33;;;27.20;1.00;;;;;;4995918;28;20199;-80
2023/09/27 12:41:17;;;;;;;2.80;2.50;;;27.40;1.00;;;;;;5079612;22;20222;-84
2023/09/27 12:43:43;;;;;;;3.08;2.20;;;27.50;1.00;;;;;;5035247;28;20170;-83
2023/09/27 12:46:09;;;;;;;3.28;2.10;;;27.60;1.00;;;;;;5036662;28;20220;-83
2023/09/27 12:48:35;;;;;;;2.08;1.98;;;27.80;1.00;;;;;;5051607;28;20174;-83